Time;durP1;ratioP1;P1;durP2;ratioP2;P2;SDS_P1;SDS_P2;PMS_P1;PMS_P2;Temp;Humidity;BMP_temperature;BMP_pressure;BME280_temperature;BME280_humidity;BME280_pressure;Samples;Min_cycle;Max_cycle;Signal;HPM_P1;HPM_P2
2022/09/02 00:01:38;;;;;;;1.07;1.07;;;;;;;;;;5036140;28;20229;-80
2022/09/02 00:04:08;;;;;;;1.03;1.03;;;;;;;;;;5035942;28;20200;-80
2022/09/02 00:06:38;;;;;;;1.20;1.20;;;;;;;;;;5021955;28;20252;-80
2022/09/02 00:09:07;;;;;;;1.97;0.87;;;;;;;;;;5035047;28;20203;-80
2022/09/02 00:11:36;;;;;;;0.97;0.97;;;;;;;;;;5034989;28;20188;-80
2022/09/02 00:14:06;;;;;;;0.63;0.63;;;;;;;;;;5034670;28;20211;-79
2022/09/02 00:16:35;;;;;;;0.80;0.80;;;;;;;;;;5034509;28;20195;-80
2022/09/02 00:19:04;;;;;;;0.90;0.90;;;;;;;;;;5034619;28;20293;-80
2022/09/02 00:21:33;;;;;;;1.23;1.13;;;;;;;;;;5035208;28;20205;-80
2022/09/02 00:24:03;;;;;;;2.20;2.00;;;;;;;;;;5034504;28;20216;-80
2022/09/02 00:26:32;;;;;;;0.67;0.67;;;;;;;;;;5068000;28;20211;-80
2022/09/02 00:29:00;;;;;;;1.70;1.37;;;;;;;;;;5034130;28;20202;-80
2022/09/02 00:31:29;;;;;;;0.60;0.60;;;;;;;;;;5035507;28;20217;-80
2022/09/02 00:33:57;;;;;;;1.83;0.83;;;;;;;;;;5033887;28;20205;-80
2022/09/02 00:36:26;;;;;;;0.50;0.50;;;;;;;;;;5055822;28;20223;-80
2022/09/02 00:38:55;;;;;;;0.40;0.40;;;;;;;;;;5033132;28;20222;-80
2022/09/02 00:41:26;;;;;;;0.40;0.40;;;;;;;;;;5035288;28;20234;-80
2022/09/02 00:43:55;;;;;;;0.70;0.70;;;;;;;;;;5015665;28;20192;-80
2022/09/02 00:46:25;;;;;;;0.43;0.43;;;;;;;;;;5029184;28;20210;-80
2022/09/02 00:48:56;;;;;;;0.33;0.33;;;;;;;;;;5034083;28;20233;-79
2022/09/02 00:51:27;;;;;;;0.50;0.50;;;;;;;;;;5048026;28;20203;-79
2022/09/02 00:53:55;;;;;;;0.60;0.60;;;;;;;;;;5048406;28;20222;-80
2022/09/02 00:56:27;;;;;;;0.93;0.93;;;;;;;;;;5030086;28;20210;-79
2022/09/02 00:58:56;;;;;;;2.50;1.30;;;;;;;;;;5035172;28;20214;-80
2022/09/02 01:01:25;;;;;;;2.90;0.87;;;;;;;;;;5066616;28;20213;-80
2022/09/02 01:03:55;;;;;;;0.90;0.90;;;;;;;;;;5066989;28;20261;-80
2022/09/02 01:06:25;;;;;;;0.57;0.57;;;;;;;;;;5032399;28;20194;-80
2022/09/02 01:08:57;;;;;;;4.03;1.17;;;;;;;;;;5045759;28;20206;-80
2022/09/02 01:11:31;;;;;;;0.70;0.70;;;;;;;;;;5033609;28;20213;-79
2022/09/02 01:14:00;;;;;;;2.30;2.20;;;;;;;;;;5034679;28;20251;-80
2022/09/02 01:16:31;;;;;;;6.90;1.43;;;;;;;;;;5034755;28;20209;-80
2022/09/02 01:19:02;;;;;;;0.50;0.50;;;;;;;;;;5034847;28;20234;-80
2022/09/02 01:21:30;;;;;;;1.43;0.87;;;;;;;;;;5034100;28;20225;-80
2022/09/02 01:24:00;;;;;;;0.80;0.80;;;;;;;;;;5029342;28;20194;-80
2022/09/02 01:26:29;;;;;;;2.00;1.23;;;;;;;;;;5026870;28;20251;-79
2022/09/02 01:28:58;;;;;;;5.70;1.53;;;;;;;;;;5050007;28;20199;-79
2022/09/02 01:31:26;;;;;;;1.67;1.30;;;;;;;;;;5032327;28;20259;-80
2022/09/02 01:33:56;;;;;;;0.40;0.40;;;;;;;;;;5033091;28;20264;-80
2022/09/02 01:36:25;;;;;;;1.00;1.00;;;;;;;;;;5033566;28;20252;-80
2022/09/02 01:38:53;;;;;;;0.70;0.70;;;;;;;;;;5034318;28;20216;-79
2022/09/02 01:41:23;;;;;;;1.03;0.97;;;;;;;;;;5032804;28;20206;-79
2022/09/02 01:43:52;;;;;;;0.53;0.53;;;;;;;;;;5020260;28;20241;-79
2022/09/02 01:46:20;;;;;;;0.40;0.40;;;;;;;;;;5033064;28;20217;-79
2022/09/02 01:48:49;;;;;;;0.57;0.57;;;;;;;;;;5033852;28;20254;-79
2022/09/02 01:51:18;;;;;;;1.23;1.13;;;;;;;;;;5033826;28;20206;-79
2022/09/02 01:53:46;;;;;;;1.13;1.03;;;;;;;;;;5065643;28;20273;-80
2022/09/02 01:56:15;;;;;;;0.40;0.40;;;;;;;;;;5034135;28;20217;-80
2022/09/02 01:58:45;;;;;;;0.40;0.40;;;;;;;;;;5032505;28;20206;-80
2022/09/02 02:01:14;;;;;;;0.30;0.30;;;;;;;;;;5032414;28;20214;-80
2022/09/02 02:03:43;;;;;;;1.50;1.27;;;;;;;;;;5032949;28;20244;-80
2022/09/02 02:06:12;;;;;;;0.40;0.40;;;;;;;;;;5033503;28;20264;-80
2022/09/02 02:08:41;;;;;;;0.40;0.40;;;;;;;;;;5032594;28;20203;-80
2022/09/02 02:11:09;;;;;;;0.40;0.40;;;;;;;;;;5032738;28;20207;-80
2022/09/02 02:13:40;;;;;;;0.50;0.50;;;;;;;;;;5032433;28;20222;-80
2022/09/02 02:16:10;;;;;;;0.30;0.30;;;;;;;;;;5020502;28;20206;-80
2022/09/02 02:18:39;;;;;;;0.40;0.40;;;;;;;;;;5020906;28;20202;-80
2022/09/02 02:21:07;;;;;;;0.40;0.40;;;;;;;;;;5032445;28;20213;-80
2022/09/02 02:23:35;;;;;;;0.40;0.40;;;;;;;;;;5032338;28;20214;-80
2022/09/02 02:26:04;;;;;;;0.40;0.40;;;;;;;;;;5018663;28;20226;-80
2022/09/02 02:28:32;;;;;;;0.40;0.40;;;;;;;;;;5032469;28;20253;-81
2022/09/02 02:31:01;;;;;;;0.60;0.60;;;;;;;;;;5032770;28;20205;-81
2022/09/02 02:33:31;;;;;;;0.40;0.40;;;;;;;;;;5032299;28;20237;-80
2022/09/02 02:36:04;;;;;;;0.67;0.67;;;;;;;;;;5032045;28;20240;-80
2022/09/02 02:38:33;;;;;;;0.43;0.43;;;;;;;;;;5031986;28;20198;-80
2022/09/02 02:41:05;;;;;;;0.57;0.57;;;;;;;;;;5032071;28;20202;-80
2022/09/02 02:43:35;;;;;;;0.57;0.57;;;;;;;;;;5031305;28;20233;-80
2022/09/02 02:46:04;;;;;;;0.67;0.67;;;;;;;;;;5020689;28;20202;-80
2022/09/02 02:48:35;;;;;;;0.50;0.50;;;;;;;;;;5031815;28;20269;-80
2022/09/02 02:51:03;;;;;;;1.50;1.40;;;;;;;;;;5032102;28;20202;-80
2022/09/02 02:53:32;;;;;;;0.40;0.40;;;;;;;;;;5032954;28;20229;-80
2022/09/02 02:56:00;;;;;;;0.70;0.70;;;;;;;;;;5031747;28;20209;-80
2022/09/02 02:58:29;;;;;;;0.77;0.77;;;;;;;;;;5032890;28;20202;-78
2022/09/02 03:00:58;;;;;;;0.33;0.33;;;;;;;;;;5022469;28;20207;-81
2022/09/02 03:03:26;;;;;;;0.40;0.40;;;;;;;;;;5028682;28;20198;-79
2022/09/02 03:05:56;;;;;;;1.27;1.13;;;;;;;;;;5031872;28;20202;-79
2022/09/02 03:08:25;;;;;;;3.37;1.00;;;;;;;;;;5065237;28;20202;-79
2022/09/02 03:10:54;;;;;;;0.40;0.40;;;;;;;;;;5028692;28;20211;-79
2022/09/02 03:13:23;;;;;;;0.87;0.87;;;;;;;;;;5031166;28;20214;-79
2022/09/02 03:15:51;;;;;;;1.17;1.17;;;;;;;;;;5031483;28;20208;-79
2022/09/02 03:18:20;;;;;;;0.40;0.40;;;;;;;;;;5032772;28;20228;-79
2022/09/02 03:20:49;;;;;;;0.50;0.50;;;;;;;;;;5052509;28;20218;-79
2022/09/02 03:23:19;;;;;;;0.80;0.80;;;;;;;;;;5031334;28;20214;-79
2022/09/02 03:25:47;;;;;;;1.13;0.93;;;;;;;;;;5018937;28;20210;-79
2022/09/02 03:28:16;;;;;;;0.50;0.50;;;;;;;;;;5032731;28;20205;-79
2022/09/02 03:30:45;;;;;;;0.50;0.50;;;;;;;;;;5031521;28;20210;-79
2022/09/02 03:33:14;;;;;;;0.50;0.50;;;;;;;;;;5031419;28;20205;-79
2022/09/02 03:35:44;;;;;;;1.23;1.03;;;;;;;;;;5031103;28;20244;-80
2022/09/02 03:38:13;;;;;;;1.47;1.00;;;;;;;;;;5031876;28;20232;-80
2022/09/02 03:40:43;;;;;;;0.80;0.80;;;;;;;;;;5031602;28;20194;-79
2022/09/02 03:43:11;;;;;;;0.63;0.63;;;;;;;;;;5040837;28;20225;-80
2022/09/02 03:45:40;;;;;;;0.77;0.77;;;;;;;;;;5032725;28;20191;-80
2022/09/02 03:48:09;;;;;;;0.60;0.60;;;;;;;;;;5031410;28;20233;-80
2022/09/02 03:50:39;;;;;;;0.40;0.40;;;;;;;;;;5031497;28;20194;-80
2022/09/02 03:53:08;;;;;;;0.40;0.40;;;;;;;;;;5031908;28;20201;-80
2022/09/02 03:55:48;;;;;;;0.77;0.70;;;;;;;;;;5034296;28;20252;-80
2022/09/02 03:58:18;;;;;;;0.50;0.50;;;;;;;;;;5035350;28;20348;-80
2022/09/02 04:00:51;;;;;;;0.90;0.90;;;;;;;;;;5025046;28;20260;-80
2022/09/02 04:03:20;;;;;;;0.47;0.47;;;;;;;;;;5035656;28;20202;-80
2022/09/02 04:05:49;;;;;;;1.07;1.07;;;;;;;;;;5034860;28;20210;-80
2022/09/02 04:08:18;;;;;;;0.40;0.40;;;;;;;;;;5034881;28;20216;-80
2022/09/02 04:10:46;;;;;;;0.53;0.53;;;;;;;;;;5034494;28;20267;-80
2022/09/02 04:13:16;;;;;;;0.60;0.60;;;;;;;;;;5034866;28;20201;-80
2022/09/02 04:15:47;;;;;;;1.03;1.03;;;;;;;;;;5034228;28;20225;-80
2022/09/02 04:18:16;;;;;;;0.90;0.90;;;;;;;;;;5022300;28;20197;-80
2022/09/02 04:20:45;;;;;;;3.27;0.70;;;;;;;;;;5031286;28;20205;-80
2022/09/02 04:23:14;;;;;;;0.70;0.70;;;;;;;;;;5020673;28;20202;-81
2022/09/02 04:25:43;;;;;;;0.50;0.50;;;;;;;;;;5021569;28;20199;-81
2022/09/02 04:28:12;;;;;;;1.47;1.40;;;;;;;;;;5054916;28;20206;-80
2022/09/02 04:30:42;;;;;;;0.70;0.70;;;;;;;;;;5034566;28;20208;-80
2022/09/02 04:33:12;;;;;;;0.73;0.73;;;;;;;;;;5034378;28;20213;-81
2022/09/02 04:35:41;;;;;;;0.80;0.80;;;;;;;;;;5033898;28;20281;-81
2022/09/02 04:38:10;;;;;;;0.70;0.70;;;;;;;;;;5034323;28;20213;-81
2022/09/02 04:40:40;;;;;;;2.27;1.40;;;;;;;;;;5066969;28;20275;-81
2022/09/02 04:43:09;;;;;;;0.93;0.93;;;;;;;;;;5035425;28;20264;-81
2022/09/02 04:45:39;;;;;;;0.70;0.70;;;;;;;;;;5033777;28;20190;-81
2022/09/02 04:48:09;;;;;;;0.80;0.80;;;;;;;;;;5033928;28;20240;-81
2022/09/02 04:50:41;;;;;;;1.73;0.67;;;;;;;;;;5035101;28;20201;-81
2022/09/02 04:53:10;;;;;;;1.57;1.27;;;;;;;;;;5034429;28;20205;-81
2022/09/02 04:55:39;;;;;;;0.87;0.87;;;;;;;;;;5030503;28;20217;-81
2022/09/02 04:58:08;;;;;;;5.63;0.97;;;;;;;;;;5029119;28;20209;-81
2022/09/02 05:00:37;;;;;;;0.73;0.73;;;;;;;;;;5034972;28;20232;-80
2022/09/02 05:03:06;;;;;;;0.83;0.83;;;;;;;;;;5033510;28;20206;-80
2022/09/02 05:05:37;;;;;;;0.83;0.83;;;;;;;;;;5033717;28;20216;-81
2022/09/02 05:08:06;;;;;;;1.07;0.97;;;;;;;;;;5020491;28;20206;-81
2022/09/02 05:10:35;;;;;;;0.80;0.80;;;;;;;;;;5025249;28;20210;-81
2022/09/02 05:13:03;;;;;;;1.23;1.17;;;;;;;;;;5033191;28;20193;-81
2022/09/02 05:15:32;;;;;;;1.93;1.20;;;;;;;;;;5025244;28;20217;-81
2022/09/02 05:18:00;;;;;;;0.60;0.60;;;;;;;;;;5017476;28;20264;-81
2022/09/02 05:20:31;;;;;;;0.50;0.50;;;;;;;;;;5034608;28;20225;-80
2022/09/02 05:23:00;;;;;;;0.90;0.90;;;;;;;;;;5033083;28;20213;-80
2022/09/02 05:25:30;;;;;;;1.10;1.00;;;;;;;;;;5034434;28;20214;-81
2022/09/02 05:27:58;;;;;;;0.70;0.70;;;;;;;;;;5033221;28;20201;-81
2022/09/02 05:30:26;;;;;;;1.00;1.00;;;;;;;;;;5034620;28;20203;-81
2022/09/02 05:32:55;;;;;;;0.70;0.70;;;;;;;;;;5034063;28;20212;-80
2022/09/02 05:35:24;;;;;;;0.70;0.70;;;;;;;;;;5032922;28;20230;-80
2022/09/02 05:37:52;;;;;;;0.90;0.90;;;;;;;;;;5033198;28;20206;-81
2022/09/02 05:40:29;;;;;;;0.60;0.60;;;;;;;;;;5033321;28;20207;-81
2022/09/02 05:42:57;;;;;;;0.63;0.63;;;;;;;;;;5021246;28;20211;-81
2022/09/02 05:45:26;;;;;;;1.43;1.40;;;;;;;;;;5066020;28;20206;-81
2022/09/02 05:47:54;;;;;;;0.80;0.80;;;;;;;;;;5032992;28;20244;-81
2022/09/02 05:50:23;;;;;;;1.77;0.83;;;;;;;;;;5032832;28;20201;-79
2022/09/02 05:52:51;;;;;;;1.03;1.03;;;;;;;;;;5034145;28;20262;-79
2022/09/02 05:55:20;;;;;;;5.00;1.07;;;;;;;;;;5032554;28;20268;-80
2022/09/02 05:57:49;;;;;;;1.00;1.00;;;;;;;;;;5032732;28;20197;-80
2022/09/02 06:00:21;;;;;;;0.60;0.60;;;;;;;;;;5033366;28;20260;-79
2022/09/02 06:02:50;;;;;;;1.20;1.00;;;;;;;;;;5031653;28;20202;-79
2022/09/02 06:05:19;;;;;;;0.50;0.50;;;;;;;;;;5030212;28;20205;-80
2022/09/02 06:07:47;;;;;;;0.73;0.73;;;;;;;;;;5066038;28;20328;-80
2022/09/02 06:10:16;;;;;;;69.60;3.90;;;;;;;;;;5030518;28;20206;-80
2022/09/02 06:12:44;;;;;;;0.60;0.60;;;;;;;;;;5033343;28;20263;-80
2022/09/02 06:15:14;;;;;;;1.40;1.30;;;;;;;;;;5032389;28;20222;-81
2022/09/02 06:17:42;;;;;;;0.80;0.80;;;;;;;;;;5032437;28;20201;-81
2022/09/02 06:20:11;;;;;;;4.90;1.27;;;;;;;;;;5032284;28;20255;-81
2022/09/02 06:22:39;;;;;;;1.00;1.00;;;;;;;;;;5033534;28;20203;-81
2022/09/02 06:25:08;;;;;;;0.90;0.90;;;;;;;;;;5033759;28;20285;-81
2022/09/02 06:27:38;;;;;;;0.47;0.47;;;;;;;;;;5032254;28;20225;-81
2022/09/02 06:30:07;;;;;;;0.73;0.73;;;;;;;;;;5065459;28;20209;-81
2022/09/02 06:32:38;;;;;;;1.40;1.30;;;;;;;;;;5020715;28;20231;-81
2022/09/02 06:35:09;;;;;;;1.67;1.27;;;;;;;;;;5031986;28;20223;-81
2022/09/02 06:37:37;;;;;;;0.63;0.63;;;;;;;;;;5015440;28;20200;-81
2022/09/02 06:40:06;;;;;;;0.50;0.50;;;;;;;;;;5024178;28;20281;-80
2022/09/02 06:42:35;;;;;;;0.80;0.80;;;;;;;;;;5031777;28;20207;-80
2022/09/02 06:45:04;;;;;;;1.23;1.23;;;;;;;;;;5030085;28;20204;-82
2022/09/02 06:47:32;;;;;;;1.50;1.27;;;;;;;;;;5027513;28;20202;-83
2022/09/02 06:50:02;;;;;;;6.63;1.73;;;;;;;;;;5033807;28;20282;-83
2022/09/02 06:52:31;;;;;;;1.20;1.10;;;;;;;;;;5029933;28;20202;-83
2022/09/02 06:54:59;;;;;;;1.37;0.93;;;;;;;;;;5065047;28;20203;-83
2022/09/02 06:57:32;;;;;;;1.03;0.93;;;;;;;;;;5032094;28;20222;-83
2022/09/02 07:00:09;;;;;;;1.20;1.20;;;;;;;;;;5035283;28;20245;-82
2022/09/02 07:02:41;;;;;;;0.40;0.40;;;;;;;;;;5033838;28;20205;-82
2022/09/02 07:05:14;;;;;;;0.87;0.87;;;;;;;;;;5034899;28;20220;-83
2022/09/02 07:07:46;;;;;;;0.50;0.50;;;;;;;;;;5040010;28;20194;-80
2022/09/02 07:10:18;;;;;;;1.27;0.97;;;;;;;;;;5048020;28;20201;-82
2022/09/02 07:12:50;;;;;;;1.13;0.80;;;;;;;;;;5028230;28;20214;-82
2022/09/02 07:15:19;;;;;;;0.63;0.63;;;;;;;;;;5019786;28;20222;-82
2022/09/02 07:17:49;;;;;;;0.73;0.73;;;;;;;;;;5065619;28;20211;-82
2022/09/02 07:20:19;;;;;;;0.97;0.97;;;;;;;;;;5022917;28;20292;-82
2022/09/02 07:22:49;;;;;;;0.80;0.80;;;;;;;;;;5028723;28;20225;-83
2022/09/02 07:25:19;;;;;;;0.43;0.43;;;;;;;;;;5066784;28;20199;-83
2022/09/02 07:27:51;;;;;;;0.80;0.80;;;;;;;;;;5034685;28;20240;-83
2022/09/02 07:30:30;;;;;;;1.80;1.43;;;;;;;;;;5030281;28;20212;-84
2022/09/02 07:33:04;;;;;;;0.80;0.80;;;;;;;;;;5031126;28;20215;-84
2022/09/02 07:35:37;;;;;;;0.40;0.40;;;;;;;;;;5029661;28;20939;-84
2022/09/02 07:38:10;;;;;;;0.83;0.83;;;;;;;;;;5033185;28;20202;-83
2022/09/02 07:40:40;;;;;;;3.23;3.03;;;;;;;;;;5030827;28;20221;-82
2022/09/02 07:43:12;;;;;;;1.20;1.03;;;;;;;;;;5033648;28;20222;-84
2022/09/02 07:45:49;;;;;;;2.03;1.27;;;;;;;;;;5050696;28;20203;-83
2022/09/02 07:48:18;;;;;;;0.63;0.63;;;;;;;;;;5024473;28;20238;-83
2022/09/02 07:50:57;;;;;;;1.30;1.20;;;;;;;;;;5049833;28;20218;-82
2022/09/02 07:53:27;;;;;;;0.63;0.63;;;;;;;;;;5059159;28;20300;-84
2022/09/02 07:56:10;;;;;;;1.10;1.10;;;;;;;;;;5047226;28;20223;-82
2022/09/02 07:59:07;;;;;;;0.70;0.70;;;;;;;;;;5027130;28;20223;-83
2022/09/02 08:01:36;;;;;;;3.30;1.37;;;;;;;;;;5029607;28;20282;-81
2022/09/02 08:04:09;;;;;;;0.90;0.90;;;;;;;;;;5062078;28;20206;-81
2022/09/02 08:06:42;;;;;;;2.53;2.33;;;;;;;;;;5053187;28;20246;-83
2022/09/02 08:09:22;;;;;;;0.77;0.77;;;;;;;;;;5034288;28;20203;-81
2022/09/02 08:11:54;;;;;;;0.63;0.63;;;;;;;;;;5035640;28;20238;-81
2022/09/02 08:14:29;;;;;;;0.87;0.87;;;;;;;;;;5033653;28;20218;-82
2022/09/02 08:16:58;;;;;;;0.73;0.73;;;;;;;;;;5067315;28;20228;-82
2022/09/02 08:19:53;;;;;;;0.70;0.70;;;;;;;;;;5069099;28;20208;-82
2022/09/02 08:22:40;;;;;;;0.77;0.77;;;;;;;;;;5032416;28;20274;-82
2022/09/02 08:25:26;;;;;;;1.07;0.90;;;;;;;;;;5027250;28;20209;-83
2022/09/02 08:28:24;;;;;;;0.87;0.87;;;;;;;;;;5044463;28;20208;-84
2022/09/02 08:30:57;;;;;;;0.77;0.77;;;;;;;;;;5032906;28;20213;-84
2022/09/02 08:33:39;;;;;;;0.43;0.43;;;;;;;;;;5065188;28;20205;-83
2022/09/02 08:36:13;;;;;;;0.80;0.80;;;;;;;;;;5063622;28;20280;-82
2022/09/02 08:38:48;;;;;;;1.13;1.03;;;;;;;;;;5063066;28;20213;-81
2022/09/02 08:41:28;;;;;;;0.60;0.60;;;;;;;;;;5048808;28;20207;-82
2022/09/02 08:44:12;;;;;;;1.10;1.10;;;;;;;;;;5056017;28;20201;-82
2022/09/02 08:46:52;;;;;;;0.97;0.97;;;;;;;;;;5027506;28;20205;-82
2022/09/02 08:49:28;;;;;;;1.00;1.00;;;;;;;;;;5034022;28;20238;-81
2022/09/02 08:52:09;;;;;;;0.70;0.70;;;;;;;;;;5063438;28;20202;-81
2022/09/02 08:54:48;;;;;;;2.10;1.37;;;;;;;;;;5034747;28;20210;-82
2022/09/02 08:57:29;;;;;;;4.70;1.47;;;;;;;;;;5034070;28;20218;-83
2022/09/02 09:00:26;;;;;;;0.50;0.50;;;;;;;;;;5029644;28;20281;-82
2022/09/02 09:03:02;;;;;;;0.80;0.80;;;;;;;;;;5044469;28;20195;-82
2022/09/02 09:05:40;;;;;;;0.80;0.80;;;;;;;;;;5030374;28;20200;-82
2022/09/02 09:08:39;;;;;;;1.03;0.90;;;;;;;;;;5033460;28;20193;-82
2022/09/02 09:11:34;;;;;;;3.50;1.53;;;;;;;;;;5031151;28;20208;-82
2022/09/02 09:14:24;;;;;;;0.70;0.70;;;;;;;;;;5028102;28;20200;-81
2022/09/02 09:17:01;;;;;;;1.10;1.10;;;;;;;;;;5028114;28;20226;-82
2022/09/02 09:19:47;;;;;;;0.60;0.60;;;;;;;;;;5029967;28;20267;-82
2022/09/02 09:22:21;;;;;;;2.93;1.30;;;;;;;;;;5030968;28;20242;-82
2022/09/02 09:28:17;;;;;;;4.90;1.57;;;;;;;;;;5004446;28;20214;-82
2022/09/02 09:31:20;;;;;;;1.30;0.80;;;;;;;;;;5000765;28;20215;-83
2022/09/02 09:34:12;;;;;;;1.30;0.87;;;;;;;;;;5065058;28;20262;-83
2022/09/02 09:41:16;;;;;;;0.47;0.47;;;;;;;;;;5029722;28;20207;-83
2022/09/02 09:44:01;;;;;;;1.23;1.20;;;;;;;;;;5025877;28;20269;-83
2022/09/02 09:46:47;;;;;;;1.17;1.03;;;;;;;;;;4971588;28;20207;-83
2022/09/02 09:49:43;;;;;;;1.03;1.03;;;;;;;;;;4989336;28;20287;-81
2022/09/02 09:56:19;;;;;;;0.57;0.57;;;;;;;;;;4981048;28;20211;-84
2022/09/02 09:59:03;;;;;;;0.83;0.83;;;;;;;;;;4990901;28;20274;-86
2022/09/02 10:09:28;;;;;;;1.37;1.37;;;;;;;;;;4937186;28;20204;-84
2022/09/02 10:20:03;;;;;;;2.13;1.33;;;;;;;;;;4926767;28;20209;-84
2022/09/02 10:30:20;;;;;;;0.40;0.40;;;;;;;;;;5060943;28;20216;-85
2022/09/02 10:33:30;;;;;;;1.40;1.30;;;;;;;;;;4976574;28;20271;-84
2022/09/02 10:39:21;;;;;;;0.80;0.80;;;;;;;;;;5024466;28;20237;-84
2022/09/02 10:42:03;;;;;;;1.43;1.17;;;;;;;;;;5044988;28;20236;-85
2022/09/02 10:50:35;;;;;;;3.37;1.00;;;;;;;;;;5023597;28;20199;-84
2022/09/02 10:53:21;;;;;;;1.10;1.00;;;;;;;;;;5014498;28;20200;-84
2022/09/02 10:56:15;;;;;;;2.30;1.27;;;;;;;;;;5020679;28;20280;-84
2022/09/02 10:59:08;;;;;;;4.07;2.53;;;;;;;;;;5020231;28;20299;-84
2022/09/02 11:01:55;;;;;;;9.90;1.40;;;;;;;;;;5014431;28;20203;-84
2022/09/02 11:04:42;;;;;;;1.50;1.40;;;;;;;;;;5028057;28;20290;-84
2022/09/02 11:07:32;;;;;;;0.40;0.40;;;;;;;;;;5021421;28;20223;-84
2022/09/02 11:13:08;;;;;;;1.40;0.93;;;;;;;;;;5026393;28;20258;-84
2022/09/02 11:15:48;;;;;;;1.23;1.10;;;;;;;;;;5013275;28;20214;-84
2022/09/02 11:18:29;;;;;;;4.00;1.30;;;;;;;;;;5029045;28;20227;-84
2022/09/02 11:21:14;;;;;;;2.07;1.23;;;;;;;;;;5015371;28;20204;-84
2022/09/02 11:23:55;;;;;;;9.07;0.70;;;;;;;;;;5020459;28;20205;-84
2022/09/02 11:26:39;;;;;;;0.83;0.83;;;;;;;;;;5021042;28;20192;-84
2022/09/02 11:29:13;;;;;;;0.50;0.50;;;;;;;;;;5012755;28;20199;-84
2022/09/02 11:31:50;;;;;;;1.03;1.03;;;;;;;;;;5015957;28;20325;-84
2022/09/02 11:34:25;;;;;;;1.77;1.77;;;;;;;;;;5020945;28;20251;-84
2022/09/02 11:37:06;;;;;;;1.57;1.00;;;;;;;;;;5017987;28;20218;-85
2022/09/02 11:39:44;;;;;;;1.50;1.40;;;;;;;;;;5012088;28;20217;-84
2022/09/02 11:42:48;;;;;;;1.60;1.10;;;;;;;;;;5012640;28;20217;-84
2022/09/02 11:45:54;;;;;;;0.40;0.40;;;;;;;;;;5025201;28;20220;-85
2022/09/02 11:49:01;;;;;;;1.17;1.07;;;;;;;;;;5014569;28;20236;-84
2022/09/02 11:52:08;;;;;;;1.53;1.43;;;;;;;;;;5053651;28;20200;-85
2022/09/02 11:54:46;;;;;;;1.30;1.20;;;;;;;;;;5053238;28;20197;-83
2022/09/02 11:57:26;;;;;;;1.47;1.33;;;;;;;;;;5060577;28;20209;-84
2022/09/02 12:00:09;;;;;;;2.53;0.83;;;;;;;;;;5092315;28;20307;-84
2022/09/02 12:02:42;;;;;;;0.40;0.40;;;;;;;;;;5057994;28;20235;-84
2022/09/02 12:05:30;;;;;;;1.17;1.17;;;;;;;;;;5060108;28;20223;-84
2022/09/02 12:08:01;;;;;;;0.90;0.90;;;;;;;;;;5059437;28;20228;-84
2022/09/02 12:10:50;;;;;;;1.43;1.23;;;;;;;;;;5070797;28;20214;-84
2022/09/02 12:14:02;;;;;;;;;;;;;;;;;;;;;
2022/09/02 12:16:53;;;;;;;2.00;1.33;;;;;;;;;;5042470;28;20266;-84
2022/09/02 12:20:22;;;;;;;;;;;;;;;;;;;;;
2022/09/02 12:26:52;;;;;;;3.60;2.90;;;;;;;;;;4975774;28;20214;-81
2022/09/02 12:29:33;;;;;;;1.97;1.23;;;;;;;;;;4985287;28;20213;-80
2022/09/02 12:32:02;;;;;;;0.53;0.53;;;;;;;;;;4954351;28;20213;-81
2022/09/02 12:34:49;;;;;;;1.63;1.53;;;;;;;;;;4968446;28;20200;-80
2022/09/02 12:37:32;;;;;;;1.03;0.77;;;;;;;;;;4960903;28;20204;-80
2022/09/02 12:40:10;;;;;;;0.87;0.53;;;;;;;;;;4967172;28;20219;-82
2022/09/02 12:42:41;;;;;;;0.63;0.63;;;;;;;;;;4954397;28;20303;-81
2022/09/02 12:45:24;;;;;;;0.93;0.93;;;;;;;;;;4958861;28;20208;-81
2022/09/02 12:47:59;;;;;;;1.80;1.50;;;;;;;;;;4972386;28;20295;-81
2022/09/02 12:50:31;;;;;;;1.90;1.30;;;;;;;;;;4951640;28;20295;-80
2022/09/02 12:53:09;;;;;;;0.90;0.90;;;;;;;;;;4952050;28;20201;-81
2022/09/02 12:55:41;;;;;;;1.00;1.00;;;;;;;;;;4981328;28;20220;-81
2022/09/02 12:58:10;;;;;;;1.10;1.03;;;;;;;;;;5028890;28;20197;-81
2022/09/02 13:00:53;;;;;;;1.17;1.00;;;;;;;;;;5060834;28;20245;-80
2022/09/02 13:03:28;;;;;;;1.83;1.73;;;;;;;;;;5052415;28;20206;-80
2022/09/02 13:06:02;;;;;;;2.40;2.23;;;;;;;;;;5053579;28;20213;-81
2022/09/02 13:09:00;;;;;;;1.27;1.17;;;;;;;;;;5054008;28;20191;-82
2022/09/02 13:11:49;;;;;;;0.90;0.90;;;;;;;;;;5027932;28;20234;-81
2022/09/02 13:14:49;;;;;;;1.73;1.40;;;;;;;;;;5056953;28;20225;-80
2022/09/02 13:17:25;;;;;;;0.87;0.87;;;;;;;;;;5046582;28;20290;-80
2022/09/02 13:20:26;;;;;;;1.60;1.37;;;;;;;;;;5056304;28;20225;-80
2022/09/02 13:23:17;;;;;;;0.87;0.87;;;;;;;;;;5048045;28;20206;-79
2022/09/02 13:26:00;;;;;;;1.53;1.43;;;;;;;;;;5086257;28;20210;-81
2022/09/02 13:28:46;;;;;;;2.07;1.40;;;;;;;;;;5050694;28;20206;-81
2022/09/02 13:31:20;;;;;;;2.00;1.23;;;;;;;;;;5050838;28;20264;-81
2022/09/02 13:33:57;;;;;;;1.10;1.10;;;;;;;;;;5051987;28;20197;-81
2022/09/02 13:36:28;;;;;;;1.33;1.23;;;;;;;;;;5082216;28;20222;-81
2022/09/02 13:39:11;;;;;;;1.27;1.17;;;;;;;;;;5050477;28;20223;-80
2022/09/02 13:41:46;;;;;;;1.07;0.97;;;;;;;;;;5083191;28;20273;-81
2022/09/02 13:44:39;;;;;;;2.50;1.90;;;;;;;;;;5048107;28;20237;-81
2022/09/02 13:47:15;;;;;;;2.50;1.30;;;;;;;;;;5048647;28;20276;-79
2022/09/02 13:49:48;;;;;;;3.20;1.53;;;;;;;;;;5078541;28;20226;-81
2022/09/02 13:52:18;;;;;;;0.87;0.87;;;;;;;;;;5055047;28;20251;-81
2022/09/02 13:55:16;;;;;;;4.10;1.33;;;;;;;;;;5082768;28;20226;-80
2022/09/02 13:58:02;;;;;;;1.93;1.80;;;;;;;;;;5054027;28;20253;-80
2022/09/02 14:00:33;;;;;;;1.20;1.10;;;;;;;;;;5054559;28;20210;-82
2022/09/02 14:03:05;;;;;;;1.27;1.17;;;;;;;;;;5054981;28;20199;-82
2022/09/02 14:05:41;;;;;;;0.93;0.80;;;;;;;;;;5055523;28;20202;-82
2022/09/02 14:08:16;;;;;;;1.13;1.03;;;;;;;;;;5088789;28;20223;-81
2022/09/02 14:10:47;;;;;;;1.53;1.43;;;;;;;;;;5055183;28;20198;-83
2022/09/02 14:13:23;;;;;;;9.20;1.57;;;;;;;;;;5067541;28;20199;-82
2022/09/02 14:16:19;;;;;;;1.37;1.13;;;;;;;;;;5038551;28;20197;-83
2022/09/02 14:19:02;;;;;;;1.03;1.03;;;;;;;;;;5042872;28;20207;-83
2022/09/02 14:21:33;;;;;;;2.33;1.73;;;;;;;;;;5044544;28;20212;-83
2022/09/02 14:24:07;;;;;;;1.07;1.00;;;;;;;;;;5067483;28;20199;-83
2022/09/02 14:26:48;;;;;;;0.40;0.40;;;;;;;;;;5058377;28;20214;-83
2022/09/02 14:29:24;;;;;;;1.33;1.23;;;;;;;;;;5058550;28;20323;-82
2022/09/02 14:32:13;;;;;;;2.00;1.33;;;;;;;;;;5049117;28;20203;-84
2022/09/02 14:35:25;;;;;;;0.30;0.30;;;;;;;;;;5054056;28;20211;-83
2022/09/02 14:38:50;;;;;;;0.90;0.90;;;;;;;;;;5030858;28;20231;-83
2022/09/02 14:41:45;;;;;;;0.87;0.87;;;;;;;;;;5044140;28;20262;-83
2022/09/02 14:44:36;;;;;;;1.90;1.50;;;;;;;;;;5055014;28;20218;-83
2022/09/02 14:47:15;;;;;;;1.90;1.10;;;;;;;;;;5049498;28;20226;-83
2022/09/02 14:50:22;;;;;;;1.13;1.13;;;;;;;;;;5082850;28;20239;-84
2022/09/02 14:52:59;;;;;;;0.90;0.90;;;;;;;;;;5059417;28;20211;-83
2022/09/02 14:55:49;;;;;;;1.93;1.37;;;;;;;;;;5057862;28;20210;-83
2022/09/02 14:58:20;;;;;;;2.33;1.10;;;;;;;;;;5078253;28;20197;-83
2022/09/02 15:01:01;;;;;;;2.10;1.90;;;;;;;;;;5052650;28;20246;-83
2022/09/02 15:03:38;;;;;;;0.70;0.70;;;;;;;;;;5042533;28;20210;-82
2022/09/02 15:06:11;;;;;;;0.80;0.80;;;;;;;;;;5043009;28;20204;-81
2022/09/02 15:08:43;;;;;;;0.80;0.80;;;;;;;;;;5044575;28;20199;-82
2022/09/02 15:11:21;;;;;;;1.20;1.10;;;;;;;;;;5041227;28;20298;-81
2022/09/02 15:13:50;;;;;;;2.30;0.80;;;;;;;;;;5063823;28;20199;-81
2022/09/02 15:16:24;;;;;;;0.80;0.80;;;;;;;;;;5040705;28;20208;-81
2022/09/02 15:18:54;;;;;;;0.50;0.50;;;;;;;;;;5040114;28;20204;-82
2022/09/02 15:21:30;;;;;;;1.17;1.07;;;;;;;;;;5073311;28;20303;-81
2022/09/02 15:24:12;;;;;;;1.20;0.73;;;;;;;;;;5042285;28;20204;-81
2022/09/02 15:27:09;;;;;;;5.27;1.57;;;;;;;;;;5028305;28;20195;-82
2022/09/02 15:29:49;;;;;;;0.73;0.73;;;;;;;;;;5043686;28;20202;-82
2022/09/02 15:32:18;;;;;;;1.00;1.00;;;;;;;;;;5042576;28;20231;-83
2022/09/02 15:34:47;;;;;;;1.30;1.20;;;;;;;;;;5025000;28;20212;-83
2022/09/02 15:37:16;;;;;;;1.00;1.00;;;;;;;;;;5022358;28;20212;-81
2022/09/02 15:39:44;;;;;;;1.50;1.40;;;;;;;;;;5019758;28;20287;-82
2022/09/02 15:42:16;;;;;;;2.70;1.03;;;;;;;;;;5044898;28;20216;-80
2022/09/02 15:44:45;;;;;;;1.23;1.13;;;;;;;;;;5024880;28;20226;-80
2022/09/02 15:47:13;;;;;;;2.00;1.60;;;;;;;;;;5045496;28;20213;-80
2022/09/02 15:49:42;;;;;;;0.77;0.77;;;;;;;;;;5049765;28;20226;-80
2022/09/02 15:52:11;;;;;;;1.60;1.50;;;;;;;;;;5036941;28;20211;-79
2022/09/02 15:54:39;;;;;;;1.67;1.57;;;;;;;;;;5042765;28;20208;-80
2022/09/02 15:57:07;;;;;;;0.80;0.80;;;;;;;;;;5056107;28;20202;-80
2022/09/02 15:59:37;;;;;;;2.67;1.17;;;;;;;;;;5046136;28;20199;-79
2022/09/02 16:02:06;;;;;;;1.17;1.07;;;;;;;;;;5038040;28;20190;-80
2022/09/02 16:04:34;;;;;;;3.53;0.80;;;;;;;;;;5038082;28;20210;-79
2022/09/02 16:07:02;;;;;;;0.43;0.43;;;;;;;;;;5037793;28;20211;-79
2022/09/02 16:09:31;;;;;;;2.60;1.20;;;;;;;;;;5054923;28;20203;-80
2022/09/02 16:11:59;;;;;;;2.00;1.90;;;;;;;;;;5055369;28;20453;-79
2022/09/02 16:14:28;;;;;;;0.33;0.33;;;;;;;;;;5037811;28;20194;-80
2022/09/02 16:16:58;;;;;;;3.77;1.90;;;;;;;;;;5055538;28;20202;-79
2022/09/02 16:19:27;;;;;;;1.43;1.33;;;;;;;;;;5037912;28;20213;-79
2022/09/02 16:21:57;;;;;;;1.27;0.73;;;;;;;;;;5051156;28;20226;-79
2022/09/02 16:24:26;;;;;;;1.50;1.40;;;;;;;;;;5051265;28;20202;-79